createdAt,value
2022-12-04T00:00:34.263Z,8.345
2022-12-04T00:01:12.492Z,8.374
2022-12-04T00:02:12.891Z,8.368
2022-12-04T00:03:13.407Z,8.315
2022-12-04T00:04:12.682Z,8.362
2022-12-04T00:05:13.194Z,8.373
2022-12-04T00:06:13.409Z,8.366
2022-12-04T00:07:13.256Z,8.376
2022-12-04T00:08:12.702Z,8.390
2022-12-04T00:09:13.244Z,8.395
2022-12-04T00:10:14.151Z,8.430
2022-12-04T00:11:12.998Z,8.444
2022-12-04T00:12:13.753Z,8.435
2022-12-04T00:13:13.207Z,8.423
2022-12-04T00:14:13.595Z,8.435
2022-12-04T00:15:25.168Z,8.444
2022-12-04T00:16:12.767Z,8.390
2022-12-04T00:17:13.210Z,8.374
2022-12-04T00:18:13.141Z,8.373
2022-12-04T00:19:13.411Z,8.374
2022-12-04T00:20:12.469Z,8.340
2022-12-04T00:21:12.534Z,8.345
2022-12-04T00:22:13.021Z,8.296
2022-12-04T00:23:13.738Z,8.266
2022-12-04T00:24:12.953Z,8.295
2022-12-04T00:25:14.149Z,8.215
2022-12-04T00:26:13.104Z,8.199
2022-12-04T00:27:13.530Z,8.189
2022-12-04T00:28:12.944Z,8.204
2022-12-04T00:29:13.484Z,8.175
2022-12-04T00:31:12.964Z,8.131
2022-12-04T00:32:12.828Z,8.137
2022-12-04T00:33:12.774Z,8.215
2022-12-04T00:34:12.681Z,8.154
2022-12-04T00:35:12.888Z,8.225
2022-12-04T00:36:13.109Z,8.279
2022-12-04T00:37:12.773Z,8.229
2022-12-04T00:38:13.241Z,8.182
2022-12-04T00:39:13.847Z,8.208
2022-12-04T00:40:12.828Z,8.244
2022-12-04T00:41:12.696Z,8.164
2022-12-04T00:42:12.446Z,8.137
2022-12-04T00:43:13.379Z,8.114
2022-12-04T00:44:13.410Z,8.095
2022-12-04T00:45:13.827Z,8.137
2022-12-04T00:46:13.249Z,8.260
2022-12-04T00:47:12.857Z,8.210
2022-12-04T00:48:13.850Z,8.255
2022-12-04T00:49:12.583Z,8.133
2022-12-04T00:50:13.316Z,8.020
2022-12-04T00:51:14.164Z,8.039
2022-12-04T00:52:13.271Z,8.055
2022-12-04T00:53:12.785Z,8.111
2022-12-04T00:54:13.239Z,8.100
2022-12-04T00:55:13.380Z,8.055
2022-12-04T00:56:13.176Z,8.055
2022-12-04T00:57:13.590Z,8.034
2022-12-04T00:58:13.186Z,8.024
2022-12-04T00:59:12.715Z,7.985
2022-12-04T01:00:13.997Z,7.969
2022-12-04T01:01:15.703Z,8.010
2022-12-04T01:02:14.468Z,8.034
2022-12-04T01:03:13.895Z,8.005
2022-12-04T01:04:13.737Z,8
2022-12-04T01:05:14.200Z,7.965
2022-12-04T01:06:12.630Z,7.994
2022-12-04T01:07:12.773Z,7.989
2022-12-04T01:08:13.337Z,7.907
2022-12-04T01:09:13.281Z,7.894
2022-12-04T01:10:12.778Z,7.945
2022-12-04T01:11:13.417Z,8.015
2022-12-04T01:12:17.601Z,8.039
2022-12-04T01:13:12.429Z,8.039
2022-12-04T01:14:12.564Z,8.050
2022-12-04T01:15:13.484Z,8.020
2022-12-04T01:16:12.785Z,8.010
2022-12-04T01:17:13.814Z,8.034
2022-12-04T01:18:13.238Z,8.069
2022-12-04T01:19:14.136Z,8.064
2022-12-04T01:20:13.545Z,8.064
2022-12-04T01:21:13.286Z,8.085
2022-12-04T01:22:13.024Z,8.055
2022-12-04T01:23:13.015Z,8.029
2022-12-04T01:24:12.759Z,8.010
2022-12-04T01:25:12.589Z,7.945
2022-12-04T01:26:13.259Z,7.914
2022-12-04T01:27:13.749Z,7.985
2022-12-04T01:28:13.742Z,8
2022-12-04T01:29:13.219Z,7.849
2022-12-04T01:30:13.849Z,7.843
2022-12-04T01:31:13.679Z,7.739
2022-12-04T01:32:13.156Z,7.715
2022-12-04T01:33:13.304Z,7.755
2022-12-04T01:34:13.007Z,7.75
2022-12-04T01:35:13.809Z,7.755
2022-12-04T01:36:13.499Z,7.769
2022-12-04T01:37:14.281Z,7.75
2022-12-04T01:38:13.415Z,7.764
2022-12-04T01:39:14.017Z,7.789
2022-12-04T01:40:12.620Z,7.826
2022-12-04T01:41:13.104Z,7.870
2022-12-04T01:42:12.917Z,7.827
2022-12-04T01:43:13.070Z,7.833
2022-12-04T01:44:13.521Z,7.860
2022-12-04T01:45:13.737Z,7.833
2022-12-04T01:46:13.588Z,7.830
2022-12-04T01:47:13.482Z,7.835
2022-12-04T01:48:12.929Z,7.873
2022-12-04T01:49:13.583Z,7.894
2022-12-04T01:50:13.372Z,7.839
2022-12-04T01:51:13.130Z,7.879
2022-12-04T01:52:12.849Z,7.894
2022-12-04T01:53:13.399Z,7.940
2022-12-04T01:54:13.025Z,7.974
2022-12-04T01:55:12.740Z,8
2022-12-04T01:56:13.794Z,8.055
2022-12-04T01:57:13.635Z,8.039
2022-12-04T01:58:13.450Z,8.010
2022-12-04T01:59:13.591Z,7.989
2022-12-04T02:00:14.763Z,7.954
2022-12-04T02:01:26.961Z,7.949
2022-12-04T02:02:13.822Z,7.960
2022-12-04T02:03:13.323Z,7.960
2022-12-04T02:04:12.408Z,7.940
2022-12-04T02:05:13.498Z,7.974
2022-12-04T02:06:13.603Z,8.010
2022-12-04T02:07:13.426Z,8.024
2022-12-04T02:08:14.006Z,8.060
2022-12-04T02:09:27.360Z,8.029
2022-12-04T02:10:14.619Z,8.015
2022-12-04T02:11:13.402Z,8.064
2022-12-04T02:12:14.561Z,8.348
2022-12-04T02:13:32.645Z,8.335
2022-12-04T02:14:13.657Z,8.187
2022-12-04T02:15:32.622Z,8.050
2022-12-04T02:16:13.129Z,7.994
2022-12-04T02:17:32.132Z,7.940
2022-12-04T02:18:13.587Z,7.940
2022-12-04T02:19:13.119Z,7.909
2022-12-04T02:20:13.297Z,7.934
2022-12-04T02:21:13.938Z,8
2022-12-04T02:22:12.792Z,7.974
2022-12-04T02:23:12.737Z,7.965
2022-12-04T02:24:12.960Z,7.940
2022-12-04T02:25:13.050Z,7.994
2022-12-04T02:26:12.418Z,7.954
2022-12-04T02:27:13.036Z,7.985
2022-12-04T02:28:12.962Z,8.024
2022-12-04T02:29:13.017Z,7.900
2022-12-04T02:30:13.273Z,7.894
2022-12-04T02:31:13.421Z,7.834
2022-12-04T02:32:13.274Z,7.775
2022-12-04T02:33:12.932Z,7.724
2022-12-04T02:34:13.857Z,7.715
2022-12-04T02:35:13.928Z,7.715
2022-12-04T02:36:13.130Z,7.699
2022-12-04T02:38:13.694Z,7.715
2022-12-04T02:39:13.488Z,7.730
2022-12-04T02:40:12.482Z,7.735
2022-12-04T02:41:13.460Z,7.695
2022-12-04T02:42:13.421Z,7.709
2022-12-04T02:43:12.774Z,7.659
2022-12-04T02:44:13.712Z,7.649
2022-12-04T02:46:13.751Z,7.724
2022-12-04T02:47:13.720Z,7.678
2022-12-04T02:48:13.434Z,7.688
2022-12-04T02:49:13.529Z,7.653
2022-12-04T02:50:13.426Z,7.655
2022-12-04T02:51:13.236Z,7.699
2022-12-04T02:52:13.083Z,7.684
2022-12-04T02:54:13.597Z,7.704
2022-12-04T02:55:13.767Z,7.631
2022-12-04T02:56:13.575Z,7.677
2022-12-04T02:57:13.487Z,7.704
2022-12-04T02:58:13.344Z,7.780
2022-12-04T02:59:13.419Z,7.827
2022-12-04T03:00:13.666Z,7.844
2022-12-04T03:01:14.055Z,7.868
2022-12-04T03:02:12.966Z,7.872
2022-12-04T03:03:14.072Z,7.841
2022-12-04T03:04:12.828Z,7.796
2022-12-04T03:05:13.838Z,7.833
2022-12-04T03:06:13.120Z,7.835
2022-12-04T03:07:13.896Z,7.826
2022-12-04T03:08:13.632Z,7.810
2022-12-04T03:09:13.363Z,7.810
2022-12-04T03:10:13.156Z,7.829
2022-12-04T03:11:12.948Z,7.850
2022-12-04T03:12:12.980Z,7.821
2022-12-04T03:13:14.258Z,7.873
2022-12-04T03:14:12.877Z,7.893
2022-12-04T03:15:14.073Z,7.854
2022-12-04T03:16:13.672Z,7.844
2022-12-04T03:17:13.799Z,7.877
2022-12-04T03:18:13.386Z,7.989
2022-12-04T03:19:12.849Z,8.029
2022-12-04T03:20:13.972Z,7.969
2022-12-04T03:21:13.238Z,7.920
2022-12-04T03:22:13.387Z,7.860
2022-12-04T03:23:12.674Z,7.734
2022-12-04T03:24:13.565Z,7.642
2022-12-04T03:25:14.116Z,7.620
2022-12-04T03:26:13.282Z,7.594
2022-12-04T03:27:14.072Z,7.620
2022-12-04T03:28:12.654Z,7.619
2022-12-04T03:29:13.586Z,7.610
2022-12-04T03:30:13.984Z,7.599
2022-12-04T03:31:13.970Z,7.579
2022-12-04T03:32:13.315Z,7.605
2022-12-04T03:33:13.588Z,7.638
2022-12-04T03:34:13.027Z,7.686
2022-12-04T03:35:14.049Z,7.643
2022-12-04T03:36:12.757Z,7.610
2022-12-04T03:37:13.597Z,7.585
2022-12-04T03:38:12.806Z,7.594
2022-12-04T03:39:12.847Z,7.605
2022-12-04T03:40:14.088Z,7.650
2022-12-04T03:41:12.645Z,7.715
2022-12-04T03:42:12.636Z,7.695
2022-12-04T03:43:13.272Z,7.75
2022-12-04T03:44:13.588Z,7.703
2022-12-04T03:45:13.532Z,7.693
2022-12-04T03:46:13.482Z,7.744
2022-12-04T03:47:13.430Z,7.693
2022-12-04T03:48:15.818Z,7.714
2022-12-04T03:49:13.207Z,7.683
2022-12-04T03:50:14.135Z,7.625
2022-12-04T03:51:13.578Z,7.570
2022-12-04T03:52:13.312Z,7.539
2022-12-04T03:53:13.840Z,7.539
2022-12-04T03:54:13.434Z,7.525
2022-12-04T03:55:13.461Z,7.671
2022-12-04T03:56:13.495Z,7.676
2022-12-04T03:57:13.184Z,7.599
2022-12-04T03:58:12.931Z,7.534
2022-12-04T03:59:13.540Z,7.539
2022-12-04T04:00:14.545Z,7.559
2022-12-04T04:01:14.179Z,7.559
2022-12-04T04:02:13.375Z,7.574
2022-12-04T04:03:12.896Z,7.565
2022-12-04T04:04:18.756Z,7.554
2022-12-04T04:05:13.831Z,7.559
2022-12-04T04:06:18.076Z,7.550
2022-12-04T04:07:13.695Z,7.539
2022-12-04T04:08:13.295Z,7.525
2022-12-04T04:09:13.234Z,7.465
2022-12-04T04:10:12.991Z,7.465
2022-12-04T04:11:13.329Z,7.510
2022-12-04T04:12:13.571Z,7.525
2022-12-04T04:13:13.169Z,7.534
2022-12-04T04:14:18.152Z,7.510
2022-12-04T04:15:13.308Z,7.505
2022-12-04T04:16:13.434Z,7.465
2022-12-04T04:17:13.673Z,7.460
2022-12-04T04:18:13.427Z,7.449
2022-12-04T04:19:13.052Z,7.494
2022-12-04T04:20:13.472Z,7.465
2022-12-04T04:21:12.473Z,7.460
2022-12-04T04:22:13.896Z,7.465
2022-12-04T04:23:13.174Z,7.460
2022-12-04T04:24:13.055Z,7.449
2022-12-04T04:25:13.472Z,7.440
2022-12-04T04:26:13.245Z,7.489
2022-12-04T04:27:12.844Z,7.454
2022-12-04T04:28:13.059Z,7.469
2022-12-04T04:29:13.628Z,7.480
2022-12-04T04:30:13.570Z,7.514
2022-12-04T04:31:13.575Z,7.494
2022-12-04T04:32:13.513Z,7.482
2022-12-04T04:33:13.237Z,7.486
2022-12-04T04:34:13.638Z,7.428
2022-12-04T04:35:13.936Z,7.449
2022-12-04T04:36:13.967Z,7.546
2022-12-04T04:37:13.043Z,7.670
2022-12-04T04:38:13.643Z,7.625
2022-12-04T04:39:13.687Z,7.590
2022-12-04T04:40:13.604Z,7.554
2022-12-04T04:41:13.170Z,7.585
2022-12-04T04:42:13.266Z,7.545
2022-12-04T04:43:13.203Z,7.510
2022-12-04T04:44:12.849Z,7.485
2022-12-04T04:45:12.619Z,7.420
2022-12-04T04:46:13.403Z,7.440
2022-12-04T04:47:13.569Z,7.454
2022-12-04T04:48:13.585Z,7.5
2022-12-04T04:49:13.344Z,7.454
2022-12-04T04:50:13.132Z,7.440
2022-12-04T04:51:12.771Z,7.474
2022-12-04T04:52:13.421Z,7.474
2022-12-04T04:53:13.811Z,7.5
2022-12-04T04:54:13.611Z,7.480
2022-12-04T04:55:13.473Z,7.445
2022-12-04T04:56:13.270Z,7.445
2022-12-04T04:57:13.195Z,7.440
2022-12-04T04:58:12.740Z,7.409
2022-12-04T04:59:13.551Z,7.425
2022-12-04T05:00:13.526Z,7.449
2022-12-04T05:01:12.822Z,7.434
2022-12-04T05:02:13.472Z,7.385
2022-12-04T05:03:13.529Z,7.425
2022-12-04T05:04:14.223Z,7.445
2022-12-04T05:05:13.552Z,7.429
2022-12-04T05:06:13.033Z,7.425
2022-12-04T05:07:13.610Z,7.440
2022-12-04T05:08:13.294Z,7.474
2022-12-04T05:09:13.175Z,7.469
2022-12-04T05:10:13.191Z,7.469
2022-12-04T05:11:12.770Z,7.485
2022-12-04T05:12:13.981Z,7.465
2022-12-04T05:13:13.309Z,7.434
2022-12-04T05:14:13.287Z,7.420
2022-12-04T05:15:12.880Z,7.494
2022-12-04T05:16:13.787Z,7.505
2022-12-04T05:17:13.530Z,7.469
2022-12-04T05:18:13.750Z,7.394
2022-12-04T05:19:13.498Z,7.340
2022-12-04T05:20:13.237Z,7.349
2022-12-04T05:21:13.072Z,7.315
2022-12-04T05:22:13.633Z,7.349
2022-12-04T05:23:13.496Z,7.368
2022-12-04T05:24:13.827Z,7.344
2022-12-04T05:25:14.312Z,7.327
2022-12-04T05:26:13.867Z,7.479
2022-12-04T05:27:13.398Z,7.460
2022-12-04T05:28:13.397Z,7.388
2022-12-04T05:29:12.817Z,7.315
2022-12-04T05:30:14.446Z,7.300
2022-12-04T05:31:13.215Z,7.280
2022-12-04T05:32:13.873Z,7.260
2022-12-04T05:33:13.426Z,7.260
2022-12-04T05:34:13.455Z,7.269
2022-12-04T05:35:14.038Z,7.295
2022-12-04T05:36:13.444Z,7.309
2022-12-04T05:37:13.616Z,7.309
2022-12-04T05:38:13.255Z,7.295
2022-12-04T05:39:13.131Z,7.25
2022-12-04T05:40:13.490Z,7.244
2022-12-04T05:41:12.341Z,7.260
2022-12-04T05:42:14.228Z,7.189
2022-12-04T05:43:13.054Z,7.178
2022-12-04T05:44:13.756Z,7.190
2022-12-04T05:45:13.754Z,7.189
2022-12-04T05:46:13.507Z,7.183
2022-12-04T05:47:14.100Z,7.193
2022-12-04T05:48:13.201Z,7.193
2022-12-04T05:49:12.808Z,7.178
2022-12-04T05:50:13.528Z,7.149
2022-12-04T05:51:13.825Z,7.171
2022-12-04T05:52:13.056Z,7.144
2022-12-04T05:53:13.487Z,7.094
2022-12-04T05:54:13.585Z,7.149
2022-12-04T05:55:13.668Z,7.150
2022-12-04T05:56:13.155Z,7.116
2022-12-04T05:57:13.515Z,7.151
2022-12-04T05:58:13.508Z,7.136
2022-12-04T05:59:12.939Z,7.199
2022-12-04T06:00:14.114Z,7.178
2022-12-04T06:01:13.100Z,7.130
2022-12-04T06:02:14.465Z,7.232
2022-12-04T06:03:13.592Z,7.298
2022-12-04T06:04:13.747Z,7.333
2022-12-04T06:05:14.126Z,7.269
2022-12-04T06:06:19.268Z,7.239
2022-12-04T06:07:14.300Z,7.199
2022-12-04T06:08:13.354Z,7.178
2022-12-04T06:09:13.473Z,7.199
2022-12-04T06:10:13.671Z,7.244
2022-12-04T06:11:14.194Z,7.189
2022-12-04T06:12:13.519Z,7.230
2022-12-04T06:13:13.310Z,7.204
2022-12-04T06:14:13.163Z,7.230
2022-12-04T06:15:13.690Z,7.192
2022-12-04T06:16:13.819Z,7.120
2022-12-04T06:17:13.663Z,7.126
2022-12-04T06:19:13.457Z,7.159
2022-12-04T06:20:13.782Z,7.143
2022-12-04T06:21:13.205Z,7.110
2022-12-04T06:22:13.707Z,7.070
2022-12-04T06:23:12.898Z,7.054
2022-12-04T06:24:13.417Z,7.034
2022-12-04T06:25:13.995Z,7.054
2022-12-04T06:26:13.539Z,7.034
2022-12-04T06:27:28.455Z,7.034
2022-12-04T06:28:13.861Z,7.025
2022-12-04T06:29:13.767Z,7.054
2022-12-04T06:30:14.322Z,7.030
2022-12-04T06:31:14.068Z,7.030
2022-12-04T06:32:17.978Z,7.030
2022-12-04T06:33:13.688Z,7.045
2022-12-04T06:34:13.548Z,7.045
2022-12-04T06:35:18.516Z,7.085
2022-12-04T06:36:13.317Z,7.155
2022-12-04T06:37:13.475Z,7.159
2022-12-04T06:38:13.205Z,7.164
2022-12-04T06:39:18.434Z,7.110
2022-12-04T06:40:13.720Z,7.105
2022-12-04T06:41:13.968Z,7.159
2022-12-04T06:42:13.629Z,7.099
2022-12-04T06:43:21.092Z,7.034
2022-12-04T06:44:13.665Z,7.019
2022-12-04T06:45:14.496Z,6.985
2022-12-04T06:46:13.347Z,7.019
2022-12-04T06:47:13.739Z,6.985
2022-12-04T06:48:13.865Z,6.994
2022-12-04T06:49:13.509Z,7
2022-12-04T06:50:13.873Z,7.030
2022-12-04T06:51:13.974Z,6.989
2022-12-04T06:52:13.795Z,6.969
2022-12-04T06:53:13.700Z,6.954
2022-12-04T06:54:13.370Z,6.974
2022-12-04T06:55:13.902Z,6.949
2022-12-04T06:56:13.751Z,6.889
2022-12-04T06:57:27.771Z,6.877
2022-12-04T06:58:13.240Z,6.905
2022-12-04T06:59:13.160Z,6.934
2022-12-04T07:00:13.713Z,6.974
2022-12-04T07:01:13.213Z,6.945
2022-12-04T07:02:13.944Z,6.905
2022-12-04T07:03:28.496Z,6.920
2022-12-04T07:04:13.898Z,6.909
2022-12-04T07:05:13.891Z,6.914
2022-12-04T07:06:13.830Z,6.929
2022-12-04T07:07:13.845Z,6.945
2022-12-04T07:08:13.741Z,6.905
2022-12-04T07:09:13.833Z,6.888
2022-12-04T07:10:13.841Z,6.905
2022-12-04T07:11:13.613Z,6.914
2022-12-04T07:12:13.840Z,6.885
2022-12-04T07:13:13.698Z,6.873
2022-12-04T07:14:13.256Z,6.900
2022-12-04T07:15:14.162Z,6.934
2022-12-04T07:16:13.088Z,6.940
2022-12-04T07:17:14.512Z,6.945
2022-12-04T07:18:13.384Z,6.945
2022-12-04T07:19:13.119Z,6.980
2022-12-04T07:20:14.001Z,6.980
2022-12-04T07:21:13.253Z,6.914
2022-12-04T07:22:13.918Z,6.905
2022-12-04T07:23:14.210Z,6.907
2022-12-04T07:24:12.806Z,7.026
2022-12-04T07:25:13.757Z,7.078
2022-12-04T07:26:13.848Z,7.229
2022-12-04T07:27:14.008Z,7.065
2022-12-04T07:28:13.092Z,6.972
2022-12-04T07:29:12.976Z,6.879
2022-12-04T07:30:15.793Z,6.833
2022-12-04T07:31:13.653Z,6.815
2022-12-04T07:32:13.216Z,6.795
2022-12-04T07:33:13.133Z,6.784
2022-12-04T07:34:13.019Z,6.821
2022-12-04T07:35:13.948Z,6.889
2022-12-04T07:36:12.813Z,6.900
2022-12-04T07:37:14.000Z,6.989
2022-12-04T07:38:14.307Z,6.907
2022-12-04T07:40:13.817Z,6.800
2022-12-04T07:41:13.220Z,6.821
2022-12-04T07:42:14.185Z,6.882
2022-12-04T07:43:13.412Z,6.849
2022-12-04T07:44:13.830Z,6.833
2022-12-04T07:45:14.122Z,6.810
2022-12-04T07:46:14.043Z,6.849
2022-12-04T07:47:14.367Z,6.809
2022-12-04T07:48:13.659Z,6.804
2022-12-04T07:49:13.646Z,6.784
2022-12-04T07:50:13.728Z,6.827
2022-12-04T07:51:14.062Z,6.804
2022-12-04T07:52:13.997Z,6.827
2022-12-04T07:53:13.390Z,6.795
2022-12-04T07:54:13.433Z,6.815
2022-12-04T07:55:17.512Z,6.775
2022-12-04T07:56:13.808Z,6.775
2022-12-04T07:57:14.371Z,6.764
2022-12-04T07:58:13.090Z,6.760
2022-12-04T07:59:14.187Z,6.744
2022-12-04T08:00:14.004Z,6.710
2022-12-04T08:01:14.001Z,6.715
2022-12-04T08:02:13.718Z,6.760
2022-12-04T08:03:13.599Z,6.815
2022-12-04T08:04:13.724Z,6.868
2022-12-04T08:05:14.790Z,6.839
2022-12-04T08:06:14.114Z,6.839
2022-12-04T08:07:13.824Z,6.879
2022-12-04T08:08:13.861Z,6.889
2022-12-04T08:09:14.355Z,6.866
2022-12-04T08:10:13.858Z,6.833
2022-12-04T08:11:13.348Z,6.839
2022-12-04T08:12:13.417Z,6.861
2022-12-04T08:13:13.724Z,6.888
2022-12-04T08:14:14.449Z,6.989
2022-12-04T08:15:13.922Z,6.985
2022-12-04T08:16:14.181Z,6.954
2022-12-04T08:17:13.345Z,6.894
2022-12-04T08:18:13.277Z,6.849
2022-12-04T08:19:13.401Z,6.844
2022-12-04T08:20:13.553Z,6.821
2022-12-04T08:21:13.040Z,6.849
2022-12-04T08:22:13.671Z,6.815
2022-12-04T08:23:13.131Z,6.849
2022-12-04T08:24:14.418Z,6.800
2022-12-04T08:25:14.273Z,6.855
2022-12-04T08:26:13.552Z,6.888
2022-12-04T08:27:14.441Z,6.914
2022-12-04T08:28:13.868Z,6.920
2022-12-04T08:29:14.661Z,6.940
2022-12-04T08:30:13.142Z,6.940
2022-12-04T08:31:13.581Z,6.914
2022-12-04T08:32:14.059Z,6.900
2022-12-04T08:33:13.277Z,6.934
2022-12-04T08:34:13.740Z,6.940
2022-12-04T08:35:14.140Z,6.949
2022-12-04T08:36:13.106Z,6.920
2022-12-04T08:37:13.506Z,6.934
2022-12-04T08:38:13.787Z,6.920
2022-12-04T08:39:13.951Z,6.980
2022-12-04T08:40:14.323Z,6.985
2022-12-04T08:41:13.319Z,6.989
2022-12-04T08:42:13.018Z,6.974
2022-12-04T08:43:13.828Z,6.949
2022-12-04T08:44:14.007Z,6.989
2022-12-04T08:45:15.619Z,6.985
2022-12-04T08:46:13.990Z,6.974
2022-12-04T08:47:13.685Z,6.985
2022-12-04T08:48:14.093Z,6.961
2022-12-04T08:49:13.979Z,6.975
2022-12-04T08:50:14.347Z,6.994
2022-12-04T08:51:13.641Z,7.010
2022-12-04T08:52:13.619Z,7.035
2022-12-04T08:53:13.489Z,7.065
2022-12-04T08:54:13.978Z,7.059
2022-12-04T08:55:13.325Z,7.015
2022-12-04T08:56:13.411Z,6.974
2022-12-04T08:57:13.820Z,6.954
2022-12-04T08:58:13.717Z,6.940
2022-12-04T08:59:13.787Z,6.954
2022-12-04T09:00:14.912Z,6.974
2022-12-04T09:01:13.277Z,7.005
2022-12-04T09:02:12.903Z,7.014
2022-12-04T09:03:14.103Z,7.034
2022-12-04T09:04:13.829Z,6.965
2022-12-04T09:05:13.253Z,7.010
2022-12-04T09:06:13.298Z,7.045
2022-12-04T09:07:13.515Z,7.025
2022-12-04T09:08:13.587Z,7.106
2022-12-04T09:09:13.638Z,7.105
2022-12-04T09:10:13.963Z,7.054
2022-12-04T09:11:13.764Z,7
2022-12-04T09:12:13.697Z,7.014
2022-12-04T09:13:14.063Z,7.090
2022-12-04T09:14:13.986Z,7.090
2022-12-04T09:15:13.002Z,7.099
2022-12-04T09:16:27.232Z,7.059
2022-12-04T09:17:14.811Z,7.034
2022-12-04T09:18:14.063Z,7.111
2022-12-04T09:19:13.674Z,7.110
2022-12-04T09:20:13.951Z,7.050
2022-12-04T09:21:13.751Z,7.010
2022-12-04T09:22:32.752Z,7.019
2022-12-04T09:23:14.202Z,7.030
2022-12-04T09:24:28.205Z,7.019
2022-12-04T09:25:13.608Z,7.025
2022-12-04T09:26:14.466Z,7.054
2022-12-04T09:27:15.067Z,7.099
2022-12-04T09:28:27.986Z,7.125
2022-12-04T09:29:13.282Z,7.099
2022-12-04T09:30:33.168Z,7.131
2022-12-04T09:31:14.160Z,7.110
2022-12-04T09:32:13.149Z,7.155
2022-12-04T09:33:13.603Z,7.110
2022-12-04T09:34:13.558Z,7.070
2022-12-04T09:35:13.498Z,7.070
2022-12-04T09:36:13.566Z,7.105
2022-12-04T09:37:14.173Z,7.090
2022-12-04T09:38:13.690Z,7.074
2022-12-04T09:39:13.915Z,7.070
2022-12-04T09:40:38.118Z,7.050
2022-12-04T09:41:13.931Z,7.014
2022-12-04T09:42:12.723Z,7.074
2022-12-04T09:43:13.739Z,7.070
2022-12-04T09:44:13.688Z,7.054
2022-12-04T09:45:13.519Z,7.030
2022-12-04T09:46:13.592Z,7.039
2022-12-04T09:47:13.953Z,7.005
2022-12-04T09:48:13.227Z,7.079
2022-12-04T09:49:13.299Z,7.239
2022-12-04T09:51:12.485Z,7.079
2022-12-04T09:52:20.312Z,7.076
2022-12-04T09:53:14.024Z,7.239
2022-12-04T09:54:12.960Z,7.171
2022-12-04T09:55:12.867Z,7.155
2022-12-04T09:56:13.226Z,7.074
2022-12-04T09:57:13.947Z,7.147
2022-12-04T09:58:13.919Z,7.137
2022-12-04T09:59:13.509Z,7.182
2022-12-04T10:01:13.718Z,6.940
2022-12-04T10:03:13.762Z,7.070
2022-12-04T10:04:13.915Z,6.985
2022-12-04T10:05:13.572Z,6.960
2022-12-04T10:06:14.011Z,6.929
2022-12-04T10:07:13.323Z,6.877
2022-12-04T10:08:14.019Z,6.900
2022-12-04T10:09:13.489Z,6.909
2022-12-04T10:10:13.692Z,6.925
2022-12-04T10:11:14.414Z,6.949
2022-12-04T10:12:13.655Z,6.989
2022-12-04T10:13:14.084Z,7.032
2022-12-04T10:14:13.366Z,7.046
2022-12-04T10:15:13.721Z,7.043
2022-12-04T10:16:14.293Z,7.050
2022-12-04T10:17:13.886Z,7.409
2022-12-04T10:18:13.235Z,7.335
2022-12-04T10:19:13.607Z,7.209
2022-12-04T10:20:14.221Z,7.216
2022-12-04T10:21:13.360Z,7.104
2022-12-04T10:22:12.799Z,7.114
2022-12-04T10:23:14.309Z,7.111
2022-12-04T10:24:13.960Z,7.094
2022-12-04T10:25:12.819Z,7.094
2022-12-04T10:26:14.442Z,7.074
2022-12-04T10:27:14.144Z,7.155
2022-12-04T10:28:12.974Z,7.159
2022-12-04T10:29:13.462Z,7.159
2022-12-04T10:30:14.067Z,7.199
2022-12-04T10:31:13.767Z,7.159
2022-12-04T10:32:14.269Z,7.131
2022-12-04T10:33:13.791Z,7.099
2022-12-04T10:34:13.205Z,7.111
2022-12-04T10:35:13.756Z,7.149
2022-12-04T10:36:14.131Z,7.105
2022-12-04T10:37:13.560Z,7.074
2022-12-04T10:38:14.421Z,7.091
2022-12-04T10:39:14.380Z,7.131
2022-12-04T10:40:14.203Z,7.177
2022-12-04T10:41:15.229Z,7.184
2022-12-04T10:42:13.113Z,7.215
2022-12-04T10:43:13.244Z,7.260
2022-12-04T10:44:13.345Z,7.25
2022-12-04T10:45:13.955Z,7.203
2022-12-04T10:46:14.850Z,7.159
2022-12-04T10:47:14.150Z,7.171
2022-12-04T10:48:13.886Z,7.210
2022-12-04T10:49:13.534Z,7.230
2022-12-04T10:50:14.749Z,7.264
2022-12-04T10:51:13.755Z,7.310
2022-12-04T10:52:13.891Z,7.361
2022-12-04T10:53:14.100Z,7.355
2022-12-04T10:54:13.779Z,7.399
2022-12-04T10:55:13.961Z,7.409
2022-12-04T10:56:14.115Z,7.445
2022-12-04T10:57:14.348Z,7.460
2022-12-04T10:58:14.005Z,7.440
2022-12-04T10:59:13.731Z,7.449
2022-12-04T11:00:14.776Z,7.519
2022-12-04T11:01:13.378Z,7.530
2022-12-04T11:02:13.887Z,7.530
2022-12-04T11:03:13.571Z,7.510
2022-12-04T11:04:13.554Z,7.510
2022-12-04T11:05:13.387Z,7.539
2022-12-04T11:06:13.377Z,7.554
2022-12-04T11:07:13.964Z,7.625
2022-12-04T11:08:18.210Z,7.638
2022-12-04T11:09:12.955Z,7.625
2022-12-04T11:10:14.300Z,7.698
2022-12-04T11:11:13.769Z,7.703
2022-12-04T11:12:14.137Z,7.637
2022-12-04T11:13:13.476Z,7.699
2022-12-04T11:14:13.912Z,7.683
2022-12-04T11:15:14.852Z,7.643
2022-12-04T11:16:14.763Z,7.585
2022-12-04T11:17:13.173Z,7.610
2022-12-04T11:18:13.345Z,7.632
2022-12-04T11:19:13.363Z,7.605
2022-12-04T11:20:13.902Z,7.626
2022-12-04T11:21:14.512Z,7.723
2022-12-04T11:22:13.990Z,7.689
2022-12-04T11:23:18.570Z,7.671
2022-12-04T11:24:12.926Z,7.643
2022-12-04T11:25:18.382Z,7.632
2022-12-04T11:26:14.192Z,7.659
2022-12-04T11:27:13.797Z,7.655
2022-12-04T11:28:27.731Z,7.614
2022-12-04T11:29:18.729Z,7.594
2022-12-04T11:30:14.966Z,7.590
2022-12-04T11:31:18.725Z,7.605
2022-12-04T11:32:13.310Z,7.655
2022-12-04T11:33:22.286Z,7.649
2022-12-04T11:34:13.423Z,7.664
2022-12-04T11:35:14.704Z,7.711
2022-12-04T11:36:14.137Z,7.703
2022-12-04T11:37:22.154Z,7.706
2022-12-04T11:38:13.849Z,7.712
2022-12-04T11:39:13.611Z,7.695
2022-12-04T11:40:14.655Z,7.710
2022-12-04T11:41:14.441Z,7.744
2022-12-04T11:42:13.618Z,7.75
2022-12-04T11:43:27.281Z,7.782
2022-12-04T11:44:13.818Z,7.793
2022-12-04T11:45:13.538Z,7.789
2022-12-04T11:46:14.234Z,7.826
2022-12-04T11:47:13.696Z,7.835
2022-12-04T11:48:13.869Z,7.828
2022-12-04T11:49:13.471Z,7.810
2022-12-04T11:50:13.979Z,7.810
2022-12-04T11:51:27.533Z,7.795
2022-12-04T11:52:13.778Z,7.795
2022-12-04T11:53:13.721Z,7.804
2022-12-04T11:54:14.382Z,7.821
2022-12-04T11:55:14.957Z,7.855
2022-12-04T11:56:14.409Z,7.861
2022-12-04T11:57:14.416Z,7.879
2022-12-04T11:58:14.653Z,7.874
2022-12-04T11:59:14.336Z,7.879
2022-12-04T12:00:14.094Z,7.914
2022-12-04T12:01:14.572Z,7.900
2022-12-04T12:02:13.606Z,7.888
2022-12-04T12:03:13.956Z,7.905
2022-12-04T12:04:14.263Z,7.900
2022-12-04T12:05:13.509Z,7.894
2022-12-04T12:06:13.857Z,7.929
2022-12-04T12:07:13.780Z,7.954
2022-12-04T12:08:14.104Z,7.920
2022-12-04T12:09:14.875Z,7.940
2022-12-04T12:10:13.804Z,7.894
2022-12-04T12:11:13.894Z,7.909
2022-12-04T12:12:14.566Z,7.954
2022-12-04T12:13:14.854Z,7.940
2022-12-04T12:14:14.000Z,7.925
2022-12-04T12:15:36.897Z,7.914
2022-12-04T12:16:13.507Z,7.925
2022-12-04T12:17:14.757Z,7.960
2022-12-04T12:18:16.454Z,7.985
2022-12-04T12:19:14.165Z,7.949
2022-12-04T12:20:14.163Z,7.960
2022-12-04T12:21:13.404Z,7.980
2022-12-04T12:22:13.710Z,7.954
2022-12-04T12:23:13.668Z,7.949
2022-12-04T12:24:13.639Z,7.949
2022-12-04T12:25:14.266Z,7.989
2022-12-04T12:26:13.759Z,8
2022-12-04T12:27:13.324Z,8.020
2022-12-04T12:28:13.909Z,8.074
2022-12-04T12:29:13.231Z,8.149
2022-12-04T12:30:14.015Z,8.149
2022-12-04T12:31:13.879Z,8.074
2022-12-04T12:32:13.401Z,7.994
2022-12-04T12:33:13.937Z,7.900
2022-12-04T12:34:13.516Z,7.873
2022-12-04T12:35:14.734Z,7.855
2022-12-04T12:36:14.356Z,7.873
2022-12-04T12:37:14.162Z,7.872
2022-12-04T12:38:13.301Z,7.925
2022-12-04T12:39:14.004Z,7.940
2022-12-04T12:40:13.936Z,7.909
2022-12-04T12:41:13.679Z,7.849
2022-12-04T12:42:13.489Z,7.844
2022-12-04T12:43:14.140Z,7.899
2022-12-04T12:44:13.745Z,7.877
2022-12-04T12:45:14.720Z,7.789
2022-12-04T12:46:13.178Z,7.760
2022-12-04T12:48:13.873Z,7.789
2022-12-04T12:49:14.853Z,7.760
2022-12-04T12:50:14.416Z,7.764
2022-12-04T12:51:29.568Z,7.833
2022-12-04T12:52:13.863Z,7.844
2022-12-04T12:53:13.823Z,7.907
2022-12-04T12:54:14.867Z,7.900
2022-12-04T12:55:14.120Z,7.821
2022-12-04T12:56:13.581Z,7.821
2022-12-04T12:57:13.737Z,7.784
2022-12-04T12:58:13.861Z,7.775
2022-12-04T12:59:14.389Z,7.789
2022-12-04T13:00:14.806Z,7.849
2022-12-04T13:01:14.311Z,7.874
2022-12-04T13:02:13.911Z,7.879
2022-12-04T13:03:13.435Z,7.860